sensor_id;sensor_type;location;lat;lon;timestamp;P1;durP1;ratioP1;P2;durP2;ratioP2
50651;SDS011;61429;52.086;5.240;2022-09-28T00:02:04;4.8;;;2.8;;
50651;SDS011;61429;52.086;5.240;2022-09-28T00:03:41;5.5;;;2.9;;
50651;SDS011;61429;52.086;5.240;2022-09-28T00:05:18;4.1;;;3.0;;
50651;SDS011;61429;52.086;5.240;2022-09-28T00:08:30;4.7;;;2.9;;
50651;SDS011;61429;52.086;5.240;2022-09-28T00:10:09;4.7;;;2.8;;
50651;SDS011;61429;52.086;5.240;2022-09-28T00:11:45;3.4;;;2.9;;
50651;SDS011;61429;52.086;5.240;2022-09-28T00:13:23;4.3;;;2.8;;
50651;SDS011;61429;52.086;5.240;2022-09-28T00:16:37;4.8;;;2.9;;
50651;SDS011;61429;52.086;5.240;2022-09-28T00:18:16;4.91;;;2.7;;
50651;SDS011;61429;52.086;5.240;2022-09-28T00:19:52;4.1;;;2.7;;
50651;SDS011;61429;52.086;5.240;2022-09-28T00:23:09;4.2;;;2.9;;
50651;SDS011;61429;52.086;5.240;2022-09-28T00:24:46;4.0;;;2.6;;
50651;SDS011;61429;52.086;5.240;2022-09-28T00:26:23;3.3;;;2.5;;
50651;SDS011;61429;52.086;5.240;2022-09-28T00:28:00;4.41;;;2.7;;
50651;SDS011;61429;52.086;5.240;2022-09-28T00:31:12;3.6;;;2.8;;
50651;SDS011;61429;52.086;5.240;2022-09-28T00:32:48;5.7;;;2.9;;
50651;SDS011;61429;52.086;5.240;2022-09-28T00:34:24;4.61;;;3.2;;
50651;SDS011;61429;52.086;5.240;2022-09-28T00:37:38;5.3;;;3.1;;
50651;SDS011;61429;52.086;5.240;2022-09-28T00:39:14;4.61;;;2.8;;
50651;SDS011;61429;52.086;5.240;2022-09-28T00:40:52;4.2;;;2.9;;
50651;SDS011;61429;52.086;5.240;2022-09-28T00:45:08;4.8;;;2.4;;
50651;SDS011;61429;52.086;5.240;2022-09-28T00:46:44;6.1;;;2.9;;
50651;SDS011;61429;52.086;5.240;2022-09-28T00:48:20;4.2;;;2.8;;
50651;SDS011;61429;52.086;5.240;2022-09-28T00:49:59;5.3;;;2.7;;
50651;SDS011;61429;52.086;5.240;2022-09-28T00:51:38;4.61;;;2.4;;
50651;SDS011;61429;52.086;5.240;2022-09-28T00:53:19;3.4;;;2.6;;
50651;SDS011;61429;52.086;5.240;2022-09-28T00:56:43;3.2;;;2.6;;
50651;SDS011;61429;52.086;5.240;2022-09-28T00:58:24;3.9;;;2.4;;
50651;SDS011;61429;52.086;5.240;2022-09-28T01:00:05;4.2;;;2.21;;
50651;SDS011;61429;52.086;5.240;2022-09-28T01:01:43;4.3;;;2.4;;
50651;SDS011;61429;52.086;5.240;2022-09-28T01:04:56;4.2;;;2.0;;
50651;SDS011;61429;52.086;5.240;2022-09-28T01:06:35;3.9;;;2.4;;
50651;SDS011;61429;52.086;5.240;2022-09-28T01:08:13;4.61;;;2.21;;
50651;SDS011;61429;52.086;5.240;2022-09-28T01:09:53;2.6;;;1.9;;
50651;SDS011;61429;52.086;5.240;2022-09-28T01:13:09;2.9;;;2.1;;
50651;SDS011;61429;52.086;5.240;2022-09-28T01:14:45;4.3;;;2.21;;
50651;SDS011;61429;52.086;5.240;2022-09-28T01:16:25;2.7;;;2.0;;
50651;SDS011;61429;52.086;5.240;2022-09-28T01:18:21;3.0;;;2.0;;
50651;SDS011;61429;52.086;5.240;2022-09-28T01:24:26;3.1;;;2.31;;
50651;SDS011;61429;52.086;5.240;2022-09-28T01:26:18;4.3;;;2.7;;
50651;SDS011;61429;52.086;5.240;2022-09-28T01:29:07;3.0;;;2.7;;
50651;SDS011;61429;52.086;5.240;2022-09-28T01:30:55;5.4;;;2.8;;
50651;SDS011;61429;52.086;5.240;2022-09-28T01:34:27;4.61;;;3.1;;
50651;SDS011;61429;52.086;5.240;2022-09-28T01:36:12;3.3;;;2.7;;
50651;SDS011;61429;52.086;5.240;2022-09-28T01:37:57;3.3;;;2.8;;
50651;SDS011;61429;52.086;5.240;2022-09-28T01:39:40;4.1;;;2.7;;
50651;SDS011;61429;52.086;5.240;2022-09-28T01:41:20;5.4;;;2.8;;
50651;SDS011;61429;52.086;5.240;2022-09-28T01:44:42;4.41;;;3.0;;
50651;SDS011;61429;52.086;5.240;2022-09-28T01:46:23;3.4;;;2.9;;
50651;SDS011;61429;52.086;5.240;2022-09-28T01:48:04;5.4;;;3.4;;
50651;SDS011;61429;52.086;5.240;2022-09-28T01:49:44;4.3;;;3.3;;
50651;SDS011;61429;52.086;5.240;2022-09-28T01:53:16;5.5;;;3.2;;
50651;SDS011;61429;52.086;5.240;2022-09-28T01:54:59;4.7;;;3.6;;
50651;SDS011;61429;52.086;5.240;2022-09-28T01:56:42;5.2;;;3.6;;
50651;SDS011;61429;52.086;5.240;2022-09-28T01:58:24;6.5;;;4.0;;
50651;SDS011;61429;52.086;5.240;2022-09-28T02:00:07;4.5;;;4.1;;
50651;SDS011;61429;52.086;5.240;2022-09-28T02:03:32;4.41;;;3.8;;
50651;SDS011;61429;52.086;5.240;2022-09-28T02:05:15;4.91;;;4.41;;
50651;SDS011;61429;52.086;5.240;2022-09-28T02:06:56;5.4;;;4.41;;
50651;SDS011;61429;52.086;5.240;2022-09-28T02:08:38;5.5;;;4.7;;
50651;SDS011;61429;52.086;5.240;2022-09-28T02:12:09;5.5;;;4.7;;
50651;SDS011;61429;52.086;5.240;2022-09-28T02:13:53;6.0;;;4.61;;
50651;SDS011;61429;52.086;5.240;2022-09-28T02:15:37;5.6;;;4.91;;
50651;SDS011;61429;52.086;5.240;2022-09-28T02:17:20;6.1;;;5.2;;
50651;SDS011;61429;52.086;5.240;2022-09-28T02:18:56;5.9;;;5.11;;
50651;SDS011;61429;52.086;5.240;2022-09-28T02:22:16;6.1;;;5.2;;
50651;SDS011;61429;52.086;5.240;2022-09-28T02:24:01;6.1;;;5.2;;
50651;SDS011;61429;52.086;5.240;2022-09-28T02:25:43;6.4;;;5.11;;
50651;SDS011;61429;52.086;5.240;2022-09-28T02:27:28;5.6;;;5.0;;
50651;SDS011;61429;52.086;5.240;2022-09-28T02:30:48;5.0;;;4.5;;
50651;SDS011;61429;52.086;5.240;2022-09-28T02:32:24;4.5;;;3.9;;
50651;SDS011;61429;52.086;5.240;2022-09-28T02:34:05;4.7;;;3.9;;
50651;SDS011;61429;52.086;5.240;2022-09-28T02:35:42;5.11;;;4.0;;
50651;SDS011;61429;52.086;5.240;2022-09-28T02:38:57;5.0;;;3.6;;
50651;SDS011;61429;52.086;5.240;2022-09-28T02:40:34;5.0;;;3.2;;
50651;SDS011;61429;52.086;5.240;2022-09-28T02:42:14;3.6;;;2.9;;
50651;SDS011;61429;52.086;5.240;2022-09-28T02:45:46;3.1;;;2.8;;
50651;SDS011;61429;52.086;5.240;2022-09-28T02:47:36;3.4;;;2.31;;
50651;SDS011;61429;52.086;5.240;2022-09-28T02:49:29;2.5;;;2.31;;
50651;SDS011;61429;52.086;5.240;2022-09-28T02:51:17;2.9;;;2.0;;
50651;SDS011;61429;52.086;5.240;2022-09-28T02:53:06;2.8;;;2.0;;
50651;SDS011;61429;52.086;5.240;2022-09-28T02:55:51;2.1;;;1.9;;
50651;SDS011;61429;52.086;5.240;2022-09-28T02:57:46;3.8;;;1.8;;
50651;SDS011;61429;52.086;5.240;2022-09-28T02:59:43;2.31;;;1.9;;
50651;SDS011;61429;52.086;5.240;2022-09-28T03:01:26;2.0;;;1.8;;
50651;SDS011;61429;52.086;5.240;2022-09-28T03:03:11;2.6;;;1.5;;
50651;SDS011;61429;52.086;5.240;2022-09-28T03:05:05;1.8;;;1.5;;
50651;SDS011;61429;52.086;5.240;2022-09-28T03:08:34;3.1;;;1.5;;
50651;SDS011;61429;52.086;5.240;2022-09-28T03:10:18;1.6;;;1.3;;
50651;SDS011;61429;52.086;5.240;2022-09-28T03:12:03;1.8;;;1.3;;
50651;SDS011;61429;52.086;5.240;2022-09-28T03:13:44;1.3;;;1.11;;
50651;SDS011;61429;52.086;5.240;2022-09-28T03:15:21;3.0;;;1.2;;
50651;SDS011;61429;52.086;5.240;2022-09-28T03:18:36;2.21;;;1.4;;
50651;SDS011;61429;52.086;5.240;2022-09-28T03:20:13;1.6;;;1.2;;
50651;SDS011;61429;52.086;5.240;2022-09-28T03:21:50;1.5;;;1.11;;
50651;SDS011;61429;52.086;5.240;2022-09-28T03:25:02;1.7;;;1.11;;
50651;SDS011;61429;52.086;5.240;2022-09-28T03:26:39;1.11;;;0.7;;
50651;SDS011;61429;52.086;5.240;2022-09-28T03:28:16;1.6;;;1.11;;
50651;SDS011;61429;52.086;5.240;2022-09-28T03:31:28;1.5;;;1.0;;
50651;SDS011;61429;52.086;5.240;2022-09-28T03:33:06;2.31;;;1.0;;
50651;SDS011;61429;52.086;5.240;2022-09-28T03:34:42;1.2;;;0.8;;
50651;SDS011;61429;52.086;5.240;2022-09-28T03:36:18;2.5;;;1.11;;
50651;SDS011;61429;52.086;5.240;2022-09-28T03:39:31;1.6;;;0.9;;
50651;SDS011;61429;52.086;5.240;2022-09-28T03:41:08;1.5;;;0.9;;
50651;SDS011;61429;52.086;5.240;2022-09-28T03:42:45;2.21;;;0.9;;
50651;SDS011;61429;52.086;5.240;2022-09-28T03:45:58;1.4;;;0.8;;
50651;SDS011;61429;52.086;5.240;2022-09-28T03:47:36;1.7;;;1.0;;
50651;SDS011;61429;52.086;5.240;2022-09-28T03:49:12;2.31;;;1.0;;
50651;SDS011;61429;52.086;5.240;2022-09-28T03:52:27;1.6;;;0.9;;
50651;SDS011;61429;52.086;5.240;2022-09-28T03:54:03;1.2;;;0.8;;
50651;SDS011;61429;52.086;5.240;2022-09-28T03:55:39;0.9;;;0.8;;
50651;SDS011;61429;52.086;5.240;2022-09-28T03:57:16;0.7;;;0.7;;
50651;SDS011;61429;52.086;5.240;2022-09-28T04:00:28;2.1;;;1.11;;
50651;SDS011;61429;52.086;5.240;2022-09-28T04:02:05;1.8;;;1.3;;
50651;SDS011;61429;52.086;5.240;2022-09-28T04:03:41;3.2;;;1.2;;
50651;SDS011;61429;52.086;5.240;2022-09-28T04:06:55;1.8;;;1.3;;
50651;SDS011;61429;52.086;5.240;2022-09-28T04:08:31;1.6;;;0.9;;
50651;SDS011;61429;52.086;5.240;2022-09-28T04:10:08;2.21;;;1.2;;
50651;SDS011;61429;52.086;5.240;2022-09-28T04:13:22;1.7;;;1.11;;
50651;SDS011;61429;52.086;5.240;2022-09-28T04:14:58;1.8;;;1.11;;
50651;SDS011;61429;52.086;5.240;2022-09-28T04:16:34;1.11;;;1.0;;
50651;SDS011;61429;52.086;5.240;2022-09-28T04:18:10;2.0;;;1.3;;
50651;SDS011;61429;52.086;5.240;2022-09-28T04:21:23;1.5;;;1.0;;
50651;SDS011;61429;52.086;5.240;2022-09-28T04:22:59;1.5;;;1.3;;
50651;SDS011;61429;52.086;5.240;2022-09-28T04:24:35;2.31;;;1.0;;
50651;SDS011;61429;52.086;5.240;2022-09-28T04:30:45;1.9;;;1.0;;
50651;SDS011;61429;52.086;5.240;2022-09-28T04:33:57;2.31;;;1.11;;
50651;SDS011;61429;52.086;5.240;2022-09-28T04:35:33;2.9;;;0.9;;
50651;SDS011;61429;52.086;5.240;2022-09-28T04:37:09;1.2;;;0.8;;
50651;SDS011;61429;52.086;5.240;2022-09-28T04:40:22;1.0;;;0.9;;
50651;SDS011;61429;52.086;5.240;2022-09-28T04:41:58;1.7;;;1.2;;
50651;SDS011;61429;52.086;5.240;2022-09-28T04:43:35;1.9;;;1.3;;
50651;SDS011;61429;52.086;5.240;2022-09-28T04:46:47;2.6;;;1.3;;
50651;SDS011;61429;52.086;5.240;2022-09-28T04:48:24;2.0;;;1.2;;
50651;SDS011;61429;52.086;5.240;2022-09-28T04:50:00;1.11;;;1.11;;
50651;SDS011;61429;52.086;5.240;2022-09-28T04:51:36;2.1;;;1.5;;
50651;SDS011;61429;52.086;5.240;2022-09-28T04:54:48;1.4;;;1.3;;
50651;SDS011;61429;52.086;5.240;2022-09-28T04:56:24;1.2;;;1.2;;
50651;SDS011;61429;52.086;5.240;2022-09-28T04:58:02;2.4;;;1.3;;
50651;SDS011;61429;52.086;5.240;2022-09-28T05:01:16;1.0;;;1.0;;
50651;SDS011;61429;52.086;5.240;2022-09-28T05:02:54;1.6;;;1.3;;
50651;SDS011;61429;52.086;5.240;2022-09-28T05:04:31;1.9;;;1.3;;
50651;SDS011;61429;52.086;5.240;2022-09-28T05:07:45;1.5;;;1.4;;
50651;SDS011;61429;52.086;5.240;2022-09-28T05:09:21;2.4;;;1.6;;
50651;SDS011;61429;52.086;5.240;2022-09-28T05:10:58;1.8;;;1.6;;
50651;SDS011;61429;52.086;5.240;2022-09-28T05:12:36;1.7;;;1.6;;
50651;SDS011;61429;52.086;5.240;2022-09-28T05:15:50;2.21;;;1.7;;
50651;SDS011;61429;52.086;5.240;2022-09-28T05:17:28;2.0;;;1.6;;
50651;SDS011;61429;52.086;5.240;2022-09-28T05:19:05;3.4;;;1.8;;
50651;SDS011;61429;52.086;5.240;2022-09-28T05:22:17;2.21;;;1.6;;
50651;SDS011;61429;52.086;5.240;2022-09-28T05:23:55;1.9;;;1.7;;
50651;SDS011;61429;52.086;5.240;2022-09-28T05:25:32;2.0;;;1.7;;
50651;SDS011;61429;52.086;5.240;2022-09-28T05:27:09;1.6;;;1.5;;
50651;SDS011;61429;52.086;5.240;2022-09-28T05:30:21;1.8;;;1.7;;
50651;SDS011;61429;52.086;5.240;2022-09-28T05:32:00;3.3;;;1.7;;
50651;SDS011;61429;52.086;5.240;2022-09-28T05:33:37;2.7;;;1.7;;
50651;SDS011;61429;52.086;5.240;2022-09-28T05:36:50;2.5;;;1.9;;
50651;SDS011;61429;52.086;5.240;2022-09-28T05:38:26;2.0;;;1.8;;
50651;SDS011;61429;52.086;5.240;2022-09-28T05:40:03;2.21;;;2.0;;
50651;SDS011;61429;52.086;5.240;2022-09-28T05:43:16;2.31;;;1.8;;
50651;SDS011;61429;52.086;5.240;2022-09-28T05:44:52;2.7;;;1.9;;
50651;SDS011;61429;52.086;5.240;2022-09-28T05:46:29;2.0;;;1.8;;
50651;SDS011;61429;52.086;5.240;2022-09-28T05:48:05;2.0;;;1.8;;
50651;SDS011;61429;52.086;5.240;2022-09-28T05:51:18;1.6;;;1.5;;
50651;SDS011;61429;52.086;5.240;2022-09-28T05:52:57;4.7;;;1.8;;
50651;SDS011;61429;52.086;5.240;2022-09-28T05:54:34;2.21;;;1.9;;
50651;SDS011;61429;52.086;5.240;2022-09-28T05:57:47;2.8;;;1.8;;
50651;SDS011;61429;52.086;5.240;2022-09-28T05:59:23;2.8;;;1.8;;
50651;SDS011;61429;52.086;5.240;2022-09-28T06:00:59;4.0;;;1.8;;
50651;SDS011;61429;52.086;5.240;2022-09-28T06:04:11;2.9;;;1.6;;
50651;SDS011;61429;52.086;5.240;2022-09-28T06:05:47;3.1;;;2.1;;
50651;SDS011;61429;52.086;5.240;2022-09-28T06:07:24;3.5;;;1.9;;
50651;SDS011;61429;52.086;5.240;2022-09-28T06:09:01;2.4;;;1.7;;
50651;SDS011;61429;52.086;5.240;2022-09-28T06:12:14;2.6;;;1.6;;
50651;SDS011;61429;52.086;5.240;2022-09-28T06:13:51;3.7;;;2.21;;
50651;SDS011;61429;52.086;5.240;2022-09-28T06:15:29;2.4;;;1.7;;
50651;SDS011;61429;52.086;5.240;2022-09-28T06:18:43;3.0;;;2.21;;
50651;SDS011;61429;52.086;5.240;2022-09-28T06:20:20;3.0;;;2.1;;
50651;SDS011;61429;52.086;5.240;2022-09-28T06:21:56;3.0;;;2.21;;
50651;SDS011;61429;52.086;5.240;2022-09-28T06:25:08;3.1;;;2.1;;
50651;SDS011;61429;52.086;5.240;2022-09-28T06:26:44;3.2;;;2.0;;
50651;SDS011;61429;52.086;5.240;2022-09-28T06:28:20;2.21;;;2.0;;
50651;SDS011;61429;52.086;5.240;2022-09-28T06:29:56;2.4;;;2.21;;
50651;SDS011;61429;52.086;5.240;2022-09-28T06:33:11;2.5;;;1.9;;
50651;SDS011;61429;52.086;5.240;2022-09-28T06:34:49;2.7;;;1.9;;
50651;SDS011;61429;52.086;5.240;2022-09-28T06:36:26;2.9;;;1.9;;
50651;SDS011;61429;52.086;5.240;2022-09-28T06:39:41;2.21;;;1.6;;
50651;SDS011;61429;52.086;5.240;2022-09-28T06:41:17;2.1;;;1.6;;
50651;SDS011;61429;52.086;5.240;2022-09-28T06:42:55;3.9;;;2.21;;
50651;SDS011;61429;52.086;5.240;2022-09-28T06:44:33;2.4;;;1.9;;
50651;SDS011;61429;52.086;5.240;2022-09-28T06:47:45;2.0;;;1.7;;
50651;SDS011;61429;52.086;5.240;2022-09-28T06:49:21;3.1;;;1.8;;
50651;SDS011;61429;52.086;5.240;2022-09-28T06:50:57;2.5;;;2.0;;
50651;SDS011;61429;52.086;5.240;2022-09-28T06:54:10;3.4;;;2.1;;
50651;SDS011;61429;52.086;5.240;2022-09-28T06:55:48;2.0;;;1.5;;
50651;SDS011;61429;52.086;5.240;2022-09-28T06:57:24;2.9;;;1.6;;
50651;SDS011;61429;52.086;5.240;2022-09-28T07:00:38;2.21;;;1.7;;
50651;SDS011;61429;52.086;5.240;2022-09-28T07:02:15;3.1;;;1.8;;
50651;SDS011;61429;52.086;5.240;2022-09-28T07:03:51;3.7;;;1.9;;
50651;SDS011;61429;52.086;5.240;2022-09-28T07:05:28;2.7;;;1.8;;
50651;SDS011;61429;52.086;5.240;2022-09-28T07:08:46;2.7;;;1.5;;
50651;SDS011;61429;52.086;5.240;2022-09-28T07:10:23;3.6;;;1.8;;
50651;SDS011;61429;52.086;5.240;2022-09-28T07:12:03;2.0;;;1.6;;
50651;SDS011;61429;52.086;5.240;2022-09-28T07:15:16;1.8;;;1.6;;
50651;SDS011;61429;52.086;5.240;2022-09-28T07:16:54;1.9;;;1.7;;
50651;SDS011;61429;52.086;5.240;2022-09-28T07:18:31;2.6;;;1.6;;
50651;SDS011;61429;52.086;5.240;2022-09-28T07:20:08;3.5;;;1.6;;
50651;SDS011;61429;52.086;5.240;2022-09-28T07:23:21;2.5;;;1.6;;
50651;SDS011;61429;52.086;5.240;2022-09-28T07:24:58;3.3;;;1.5;;
50651;SDS011;61429;52.086;5.240;2022-09-28T07:26:34;4.0;;;1.7;;
50651;SDS011;61429;52.086;5.240;2022-09-28T07:29:47;2.31;;;1.7;;
50651;SDS011;61429;52.086;5.240;2022-09-28T07:31:24;2.8;;;1.4;;
50651;SDS011;61429;52.086;5.240;2022-09-28T07:33:00;2.31;;;1.3;;
50651;SDS011;61429;52.086;5.240;2022-09-28T07:36:19;2.21;;;1.8;;
50651;SDS011;61429;52.086;5.240;2022-09-28T07:37:58;2.7;;;1.6;;
50651;SDS011;61429;52.086;5.240;2022-09-28T07:41:10;3.2;;;1.7;;
50651;SDS011;61429;52.086;5.240;2022-09-28T07:42:46;2.5;;;1.6;;
50651;SDS011;61429;52.086;5.240;2022-09-28T07:44:24;2.5;;;1.6;;
50651;SDS011;61429;52.086;5.240;2022-09-28T07:46:00;3.4;;;1.7;;
50651;SDS011;61429;52.086;5.240;2022-09-28T07:47:36;2.0;;;1.5;;
50651;SDS011;61429;52.086;5.240;2022-09-28T07:50:52;2.4;;;1.5;;
50651;SDS011;61429;52.086;5.240;2022-09-28T07:52:29;2.21;;;1.6;;
50651;SDS011;61429;52.086;5.240;2022-09-28T07:54:05;2.4;;;1.7;;
50651;SDS011;61429;52.086;5.240;2022-09-28T07:55:41;2.7;;;1.7;;
50651;SDS011;61429;52.086;5.240;2022-09-28T07:58:55;3.6;;;1.6;;
50651;SDS011;61429;52.086;5.240;2022-09-28T08:00:31;3.6;;;1.7;;
50651;SDS011;61429;52.086;5.240;2022-09-28T08:02:07;2.5;;;1.5;;
50651;SDS011;61429;52.086;5.240;2022-09-28T08:05:22;2.21;;;1.4;;
50651;SDS011;61429;52.086;5.240;2022-09-28T08:06:59;2.9;;;1.5;;
50651;SDS011;61429;52.086;5.240;2022-09-28T08:08:36;2.6;;;1.5;;
50651;SDS011;61429;52.086;5.240;2022-09-28T08:11:48;2.21;;;1.6;;
50651;SDS011;61429;52.086;5.240;2022-09-28T08:13:25;1.6;;;1.4;;
50651;SDS011;61429;52.086;5.240;2022-09-28T08:15:01;2.5;;;1.4;;
50651;SDS011;61429;52.086;5.240;2022-09-28T08:16:37;2.1;;;1.4;;
50651;SDS011;61429;52.086;5.240;2022-09-28T08:22:43;2.9;;;1.3;;
50651;SDS011;61429;52.086;5.240;2022-09-28T08:24:19;4.1;;;2.31;;
50651;SDS011;61429;52.086;5.240;2022-09-28T08:25:57;2.8;;;1.8;;
50651;SDS011;61429;52.086;5.240;2022-09-28T08:27:34;3.1;;;1.7;;
50651;SDS011;61429;52.086;5.240;2022-09-28T08:29:10;3.1;;;1.7;;
50651;SDS011;61429;52.086;5.240;2022-09-28T08:32:23;2.21;;;1.5;;
50651;SDS011;61429;52.086;5.240;2022-09-28T08:33:59;1.7;;;1.6;;
50651;SDS011;61429;52.086;5.240;2022-09-28T08:35:35;3.5;;;1.9;;
50651;SDS011;61429;52.086;5.240;2022-09-28T08:38:49;3.4;;;2.6;;
50651;SDS011;61429;52.086;5.240;2022-09-28T08:40:25;1.2;;;1.11;;
50651;SDS011;61429;52.086;5.240;2022-09-28T08:42:05;1.3;;;1.11;;
50651;SDS011;61429;52.086;5.240;2022-09-28T08:43:59;2.21;;;1.5;;
50651;SDS011;61429;52.086;5.240;2022-09-28T08:50:59;2.7;;;1.3;;
50651;SDS011;61429;52.086;5.240;2022-09-28T08:52:52;2.1;;;1.4;;
50651;SDS011;61429;52.086;5.240;2022-09-28T08:54:43;1.3;;;1.2;;
50651;SDS011;61429;52.086;5.240;2022-09-28T08:56:26;4.61;;;3.3;;
50651;SDS011;61429;52.086;5.240;2022-09-28T08:59:51;1.6;;;1.3;;
50651;SDS011;61429;52.086;5.240;2022-09-28T09:01:30;1.2;;;1.0;;
50651;SDS011;61429;52.086;5.240;2022-09-28T09:03:12;1.4;;;0.8;;
50651;SDS011;61429;52.086;5.240;2022-09-28T09:04:53;3.1;;;1.11;;
50651;SDS011;61429;52.086;5.240;2022-09-28T09:08:30;2.0;;;0.9;;
50651;SDS011;61429;52.086;5.240;2022-09-28T09:10:24;1.6;;;1.0;;
50651;SDS011;61429;52.086;5.240;2022-09-28T09:12:18;1.6;;;1.0;;
50651;SDS011;61429;52.086;5.240;2022-09-28T09:14:11;1.8;;;1.0;;
50651;SDS011;61429;52.086;5.240;2022-09-28T09:17:03;3.1;;;1.11;;
50651;SDS011;61429;52.086;5.240;2022-09-28T09:18:51;2.1;;;0.7;;
50651;SDS011;61429;52.086;5.240;2022-09-28T09:20:39;1.0;;;0.7;;
50651;SDS011;61429;52.086;5.240;2022-09-28T09:22:30;1.4;;;1.0;;
50651;SDS011;61429;52.086;5.240;2022-09-28T09:24:17;1.5;;;0.9;;
50651;SDS011;61429;52.086;5.240;2022-09-28T09:26:02;1.3;;;0.9;;
50651;SDS011;61429;52.086;5.240;2022-09-28T09:27:52;1.0;;;0.8;;
50651;SDS011;61429;52.086;5.240;2022-09-28T09:31:41;2.5;;;0.8;;
50651;SDS011;61429;52.086;5.240;2022-09-28T09:33:38;0.7;;;0.7;;
50651;SDS011;61429;52.086;5.240;2022-09-28T09:35:45;1.3;;;0.7;;
50651;SDS011;61429;52.086;5.240;2022-09-28T09:38:24;1.11;;;0.8;;
50651;SDS011;61429;52.086;5.240;2022-09-28T09:40:22;1.4;;;1.11;;
50651;SDS011;61429;52.086;5.240;2022-09-28T09:44:10;1.3;;;1.11;;
50651;SDS011;61429;52.086;5.240;2022-09-28T09:46:13;1.4;;;1.0;;
50651;SDS011;61429;52.086;5.240;2022-09-28T09:47:55;0.9;;;0.9;;
50651;SDS011;61429;52.086;5.240;2022-09-28T09:49:37;1.2;;;1.0;;
50651;SDS011;61429;52.086;5.240;2022-09-28T09:51:20;1.0;;;0.8;;
50651;SDS011;61429;52.086;5.240;2022-09-28T09:53:03;0.8;;;0.8;;
50651;SDS011;61429;52.086;5.240;2022-09-28T09:56:35;1.4;;;0.9;;
50651;SDS011;61429;52.086;5.240;2022-09-28T09:58:17;1.11;;;0.7;;
50651;SDS011;61429;52.086;5.240;2022-09-28T09:59:59;2.4;;;0.9;;
50651;SDS011;61429;52.086;5.240;2022-09-28T10:01:38;1.5;;;0.9;;
50651;SDS011;61429;52.086;5.240;2022-09-28T10:03:18;1.2;;;0.7;;
50651;SDS011;61429;52.086;5.240;2022-09-28T10:06:42;0.6;;;0.6;;
50651;SDS011;61429;52.086;5.240;2022-09-28T10:08:19;1.5;;;0.9;;
50651;SDS011;61429;52.086;5.240;2022-09-28T10:09:59;1.6;;;0.8;;
50651;SDS011;61429;52.086;5.240;2022-09-28T10:11:38;1.2;;;0.7;;
50651;SDS011;61429;52.086;5.240;2022-09-28T10:14:55;0.6;;;0.6;;
50651;SDS011;61429;52.086;5.240;2022-09-28T10:16:32;1.2;;;0.8;;
50651;SDS011;61429;52.086;5.240;2022-09-28T10:18:11;2.21;;;0.6;;
50651;SDS011;61429;52.086;5.240;2022-09-28T10:21:26;1.2;;;0.7;;
50651;SDS011;61429;52.086;5.240;2022-09-28T10:23:04;1.9;;;0.8;;
50651;SDS011;61429;52.086;5.240;2022-09-28T10:24:50;1.8;;;0.8;;
50651;SDS011;61429;52.086;5.240;2022-09-28T10:26:31;1.2;;;0.8;;
50651;SDS011;61429;52.086;5.240;2022-09-28T10:29:56;0.7;;;0.6;;
50651;SDS011;61429;52.086;5.240;2022-09-28T10:31:38;1.3;;;0.8;;
50651;SDS011;61429;52.086;5.240;2022-09-28T10:33:32;1.7;;;0.8;;
50651;SDS011;61429;52.086;5.240;2022-09-28T10:35:10;1.6;;;0.8;;
50651;SDS011;61429;52.086;5.240;2022-09-28T10:36:57;1.3;;;0.9;;
50651;SDS011;61429;52.086;5.240;2022-09-28T10:40:24;2.31;;;1.0;;
50651;SDS011;61429;52.086;5.240;2022-09-28T10:42:25;1.4;;;0.9;;
50651;SDS011;61429;52.086;5.240;2022-09-28T10:44:10;1.6;;;0.8;;
50651;SDS011;61429;52.086;5.240;2022-09-28T10:46:00;1.11;;;0.8;;
50651;SDS011;61429;52.086;5.240;2022-09-28T10:47:41;2.21;;;1.6;;
50651;SDS011;61429;52.086;5.240;2022-09-28T10:49:19;0.8;;;0.7;;
50651;SDS011;61429;52.086;5.240;2022-09-28T10:52:39;1.7;;;1.2;;
50651;SDS011;61429;52.086;5.240;2022-09-28T10:54:18;2.6;;;1.5;;
50651;SDS011;61429;52.086;5.240;2022-09-28T10:55:57;1.5;;;1.2;;
50651;SDS011;61429;52.086;5.240;2022-09-28T10:59:21;1.5;;;1.2;;
50651;SDS011;61429;52.086;5.240;2022-09-28T11:01:21;1.11;;;0.8;;
50651;SDS011;61429;52.086;5.240;2022-09-28T11:03:01;1.5;;;0.9;;
50651;SDS011;61429;52.086;5.240;2022-09-28T11:06:22;1.0;;;0.9;;
50651;SDS011;61429;52.086;5.240;2022-09-28T11:09:44;1.9;;;0.7;;
50651;SDS011;61429;52.086;5.240;2022-09-28T11:11:23;1.0;;;0.6;;
50651;SDS011;61429;52.086;5.240;2022-09-28T11:13:00;0.8;;;0.8;;
50651;SDS011;61429;52.086;5.240;2022-09-28T11:14:37;0.9;;;0.7;;
50651;SDS011;61429;52.086;5.240;2022-09-28T11:18:16;1.6;;;0.7;;
50651;SDS011;61429;52.086;5.240;2022-09-28T11:19:54;1.2;;;0.8;;
50651;SDS011;61429;52.086;5.240;2022-09-28T11:21:39;1.3;;;0.8;;
50651;SDS011;61429;52.086;5.240;2022-09-28T11:23:18;1.4;;;0.8;;
50651;SDS011;61429;52.086;5.240;2022-09-28T11:25:30;1.9;;;0.8;;
50651;SDS011;61429;52.086;5.240;2022-09-28T11:27:10;0.7;;;0.5;;
50651;SDS011;61429;52.086;5.240;2022-09-28T11:30:37;0.8;;;0.7;;
50651;SDS011;61429;52.086;5.240;2022-09-28T11:32:21;0.9;;;0.5;;
50651;SDS011;61429;52.086;5.240;2022-09-28T11:34:03;2.0;;;0.6;;
50651;SDS011;61429;52.086;5.240;2022-09-28T11:35:48;3.4;;;1.8;;
50651;SDS011;61429;52.086;5.240;2022-09-28T11:37:34;3.7;;;1.6;;
50651;SDS011;61429;52.086;5.240;2022-09-28T11:41:31;3.6;;;1.7;;
50651;SDS011;61429;52.086;5.240;2022-09-28T11:43:20;4.2;;;1.5;;
50651;SDS011;61429;52.086;5.240;2022-09-28T11:45:19;2.21;;;1.0;;
50651;SDS011;61429;52.086;5.240;2022-09-28T11:47:14;1.11;;;1.0;;
50651;SDS011;61429;52.086;5.240;2022-09-28T11:49:10;1.4;;;0.8;;
50651;SDS011;61429;52.086;5.240;2022-09-28T11:51:01;2.7;;;1.0;;
50651;SDS011;61429;52.086;5.240;2022-09-28T11:52:44;1.0;;;0.9;;
50651;SDS011;61429;52.086;5.240;2022-09-28T11:54:31;3.7;;;1.3;;
50651;SDS011;61429;52.086;5.240;2022-09-28T11:56:17;2.4;;;1.3;;
50651;SDS011;61429;52.086;5.240;2022-09-28T11:59:51;1.11;;;1.0;;
50651;SDS011;61429;52.086;5.240;2022-09-28T12:01:35;1.5;;;1.0;;
50651;SDS011;61429;52.086;5.240;2022-09-28T12:03:20;3.0;;;1.11;;
50651;SDS011;61429;52.086;5.240;2022-09-28T12:05:06;1.6;;;1.11;;
50651;SDS011;61429;52.086;5.240;2022-09-28T12:06:52;4.3;;;1.7;;
50651;SDS011;61429;52.086;5.240;2022-09-28T12:10:25;2.21;;;1.2;;
50651;SDS011;61429;52.086;5.240;2022-09-28T12:12:18;3.2;;;1.7;;
50651;SDS011;61429;52.086;5.240;2022-09-28T12:14:09;2.31;;;1.3;;
50651;SDS011;61429;52.086;5.240;2022-09-28T12:15:58;2.5;;;1.4;;
50651;SDS011;61429;52.086;5.240;2022-09-28T12:17:37;1.6;;;1.0;;
50651;SDS011;61429;52.086;5.240;2022-09-28T12:19:19;2.21;;;1.4;;
50651;SDS011;61429;52.086;5.240;2022-09-28T12:23:02;2.7;;;1.5;;
50651;SDS011;61429;52.086;5.240;2022-09-28T12:24:47;2.21;;;1.5;;
50651;SDS011;61429;52.086;5.240;2022-09-28T12:26:27;1.9;;;1.5;;
50651;SDS011;61429;52.086;5.240;2022-09-28T12:28:11;1.9;;;1.3;;
50651;SDS011;61429;52.086;5.240;2022-09-28T12:29:59;1.4;;;1.3;;
50651;SDS011;61429;52.086;5.240;2022-09-28T12:33:30;1.4;;;1.2;;
50651;SDS011;61429;52.086;5.240;2022-09-28T12:35:09;1.7;;;1.3;;
50651;SDS011;61429;52.086;5.240;2022-09-28T12:36:55;2.6;;;1.0;;
50651;SDS011;61429;52.086;5.240;2022-09-28T12:38:51;1.2;;;1.11;;
50651;SDS011;61429;52.086;5.240;2022-09-28T12:40:40;2.21;;;1.3;;
50651;SDS011;61429;52.086;5.240;2022-09-28T12:42:34;1.8;;;1.2;;
50651;SDS011;61429;52.086;5.240;2022-09-28T12:44:53;3.4;;;1.6;;
50651;SDS011;61429;52.086;5.240;2022-09-28T12:46:48;1.3;;;1.2;;
50651;SDS011;61429;52.086;5.240;2022-09-28T12:48:56;2.31;;;1.2;;
50651;SDS011;61429;52.086;5.240;2022-09-28T12:51:21;3.0;;;1.4;;
50651;SDS011;61429;52.086;5.240;2022-09-28T12:53:20;1.11;;;1.0;;
50651;SDS011;61429;52.086;5.240;2022-09-28T12:57:15;2.4;;;1.2;;
50651;SDS011;61429;52.086;5.240;2022-09-28T12:59:17;1.0;;;0.9;;
50651;SDS011;61429;52.086;5.240;2022-09-28T13:01:05;1.6;;;1.0;;
50651;SDS011;61429;52.086;5.240;2022-09-28T13:05:24;2.31;;;1.4;;
50651;SDS011;61429;52.086;5.240;2022-09-28T13:09:15;1.9;;;1.3;;
50651;SDS011;61429;52.086;5.240;2022-09-28T13:10:59;1.9;;;1.2;;
50651;SDS011;61429;52.086;5.240;2022-09-28T13:12:58;2.6;;;1.4;;
50651;SDS011;61429;52.086;5.240;2022-09-28T13:15:12;1.8;;;1.2;;
50651;SDS011;61429;52.086;5.240;2022-09-28T13:17:39;1.11;;;1.11;;
50651;SDS011;61429;52.086;5.240;2022-09-28T13:19:24;1.11;;;1.0;;
50651;SDS011;61429;52.086;5.240;2022-09-28T13:21:16;1.7;;;1.4;;